createdAt,value
2023-02-13T00:00:32.497Z,99770.53
2023-02-13T00:02:59.569Z,99763.72
2023-02-13T00:05:26.560Z,99779.06
2023-02-13T00:07:53.508Z,99772.22
2023-02-13T00:10:20.671Z,99767.22
2023-02-13T00:12:47.720Z,99766.38
2023-02-13T00:15:14.676Z,99765.53
2023-02-13T00:17:41.649Z,99769.84
2023-02-13T00:20:10.646Z,99767.16
2023-02-13T00:22:38.247Z,99764.63
2023-02-13T00:25:06.437Z,99760.34
2023-02-13T00:27:33.837Z,99770.69
2023-02-13T00:30:00.835Z,99772.47
2023-02-13T00:32:27.750Z,99781.97
2023-02-13T00:34:56.624Z,99787.13
2023-02-13T00:37:23.868Z,99789.69
2023-02-13T00:39:52.840Z,99793.13
2023-02-13T00:42:24.089Z,99793.91
2023-02-13T00:44:51.294Z,99798.03
2023-02-13T00:47:18.731Z,99799.63
2023-02-13T00:49:45.944Z,99797.00
2023-02-13T00:52:13.217Z,99791.78
2023-02-13T00:54:40.134Z,99795.97
2023-02-13T00:57:07.056Z,99800.19
2023-02-13T00:59:35.150Z,99802.78
2023-02-13T01:02:02.148Z,99803.66
2023-02-13T01:04:29.151Z,99802.94
2023-02-13T01:06:57.497Z,99803.06
2023-02-13T01:09:25.523Z,99804.84
2023-02-13T01:11:52.787Z,99798.84
2023-02-13T01:14:20.143Z,99802.25
2023-02-13T01:16:49.268Z,99804.13
2023-02-13T01:19:16.197Z,99801.66
2023-02-13T01:21:44.402Z,99794.16
2023-02-13T01:24:11.712Z,99798.47
2023-02-13T01:26:38.763Z,99800.13
2023-02-13T01:29:05.976Z,99799.25
2023-02-13T01:31:33.117Z,99796.69
2023-02-13T01:34:00.441Z,99800.16
2023-02-13T01:36:27.710Z,99807.09
2023-02-13T01:38:57.602Z,99796.81
2023-02-13T01:41:25.932Z,99801.13
2023-02-13T01:43:59.161Z,99807.94
2023-02-13T01:46:36.026Z,99803.66
2023-02-13T01:49:25.814Z,99812.22
2023-02-13T01:51:56.588Z,99802.00
2023-02-13T01:54:33.227Z,99807.22
2023-02-13T01:57:15.113Z,99803.78
2023-02-13T01:59:49.792Z,99800.41
2023-02-13T02:02:18.527Z,99803.84
2023-02-13T02:04:48.368Z,99806.41
2023-02-13T02:07:22.918Z,99805.56
2023-02-13T02:09:54.425Z,99804.72
2023-02-13T02:12:29.098Z,99807.34
2023-02-13T02:14:58.072Z,99809.13
2023-02-13T02:17:26.787Z,99810.03
2023-02-13T02:20:15.471Z,99808.34
2023-02-13T02:22:51.609Z,99809.22
2023-02-13T02:25:46.503Z,99812.63
2023-02-13T02:28:52.650Z,99813.50
2023-02-13T02:31:37.864Z,99808.41
2023-02-13T02:34:10.556Z,99810.16
2023-02-13T02:36:53.437Z,99813.59
2023-02-13T02:39:43.480Z,99817.06
2023-02-13T02:42:23.845Z,99828.16
2023-02-13T02:44:53.869Z,99826.47
2023-02-13T02:48:11.149Z,99832.41
2023-02-13T02:50:43.884Z,99836.72
2023-02-13T02:53:31.821Z,99833.28
2023-02-13T02:56:06.285Z,99838.34
2023-02-13T02:59:00.862Z,99839.19
2023-02-13T03:01:51.278Z,99836.63
2023-02-13T03:04:49.525Z,99841.81
2023-02-13T03:07:18.762Z,99836.72
2023-02-13T03:10:13.937Z,99849.56
2023-02-13T03:13:17.682Z,99847.94
2023-02-13T03:16:04.855Z,99840.25
2023-02-13T03:18:54.953Z,99844.50
2023-02-13T03:21:53.981Z,99847.06
2023-02-13T03:24:27.412Z,99841.91
2023-02-13T03:27:54.479Z,99844.50
2023-02-13T03:30:37.162Z,99835.16
2023-02-13T03:33:19.412Z,99836.84
2023-02-13T03:36:25.743Z,99839.41
2023-02-13T03:39:09.967Z,99839.41
2023-02-13T03:41:48.918Z,99846.22
2023-02-13T03:44:23.762Z,99847.94
2023-02-13T03:46:53.646Z,99850.50
2023-02-13T03:49:44.957Z,99839.41
2023-02-13T03:52:51.184Z,99832.53
2023-02-13T03:55:44.429Z,99838.53
2023-02-13T03:58:32.546Z,99841.09
2023-02-13T04:01:05.139Z,99839.34
2023-02-13T04:03:53.264Z,99836.72
2023-02-13T04:06:51.965Z,99826.47
2023-02-13T04:09:19.310Z,99829.06
2023-02-13T04:11:46.219Z,99833.31
2023-02-13T04:14:24.104Z,99835.03
2023-02-13T04:16:58.232Z,99835.06
2023-02-13T04:19:26.906Z,99833.38
2023-02-13T04:21:59.085Z,99847.03
2023-02-13T04:24:27.353Z,99841.06
2023-02-13T04:26:55.067Z,99841.06
2023-02-13T04:29:23.557Z,99835.97
2023-02-13T04:31:51.023Z,99842.75
2023-02-13T04:34:18.092Z,99838.50
2023-02-13T04:36:45.083Z,99834.22
2023-02-13T04:39:12.423Z,99834.22
2023-02-13T04:41:39.325Z,99835.09
2023-02-13T04:44:06.336Z,99827.41
2023-02-13T04:46:33.374Z,99836.78
2023-02-13T04:49:00.429Z,99837.63
2023-02-13T04:51:27.672Z,99848.72
2023-02-13T04:53:54.811Z,99846.19
2023-02-13T04:56:21.789Z,99841.06
2023-02-13T04:58:48.801Z,99847.03
2023-02-13T05:01:17.295Z,99841.84
2023-02-13T05:03:44.354Z,99850.41
2023-02-13T05:06:11.329Z,99859.75
2023-02-13T05:08:38.726Z,99856.34
2023-02-13T05:11:06.329Z,99860.66
2023-02-13T05:13:34.111Z,99865.78
2023-02-13T05:16:01.091Z,99867.53
2023-02-13T05:18:28.003Z,99864.09
2023-02-13T05:21:14.028Z,99860.69
2023-02-13T05:23:41.042Z,99852.97
2023-02-13T05:26:07.933Z,99850.47
2023-02-13T05:28:53.336Z,99853.88
2023-02-13T05:31:20.251Z,99863.28
2023-02-13T05:33:47.263Z,99862.44
2023-02-13T05:36:14.198Z,99868.44
2023-02-13T05:38:41.452Z,99861.59
2023-02-13T05:41:08.492Z,99875.25
2023-02-13T05:43:35.429Z,99874.34
2023-02-13T05:46:07.015Z,99876.06
2023-02-13T05:48:34.487Z,99873.50
2023-02-13T05:51:01.557Z,99877.78
2023-02-13T05:53:29.945Z,99875.25
2023-02-13T05:55:57.117Z,99872.66
2023-02-13T05:58:24.189Z,99882.03
2023-02-13T06:00:51.107Z,99877.72
2023-02-13T06:03:17.955Z,99874.25
2023-02-13T06:05:44.926Z,99887.88
2023-02-13T06:08:11.824Z,99886.06
2023-02-13T06:10:38.811Z,99891.94
2023-02-13T06:13:05.688Z,99890.09
2023-02-13T06:15:32.545Z,99884.00
2023-02-13T06:17:59.904Z,99878.84
2023-02-13T06:20:27.265Z,99884.78
2023-02-13T06:22:54.198Z,99879.53
2023-02-13T06:25:21.660Z,99877.72
2023-02-13T06:27:48.589Z,99882.66
2023-02-13T06:30:16.779Z,99892.75
2023-02-13T06:32:44.335Z,99884.06
2023-02-13T06:35:11.288Z,99888.16
2023-02-13T06:37:39.346Z,99878.63
2023-02-13T06:40:07.927Z,99884.53
2023-02-13T06:42:34.879Z,99879.94
2023-02-13T06:45:01.748Z,99880.66
2023-02-13T06:47:28.623Z,99883.22
2023-02-13T06:49:55.519Z,99884.09
2023-02-13T06:52:22.469Z,99891.53
2023-02-13T06:54:49.421Z,99882.97
2023-02-13T06:57:16.669Z,99889.69
2023-02-13T06:59:43.900Z,99881.53
2023-02-13T07:02:14.180Z,99886.41
2023-02-13T07:04:41.504Z,99885.38
2023-02-13T07:07:08.512Z,99885.41
2023-02-13T07:09:35.695Z,99897.34
2023-02-13T07:12:04.762Z,99891.81
2023-02-13T07:14:31.735Z,99893.91
2023-02-13T07:16:58.864Z,99894.00
2023-02-13T07:19:25.843Z,99887.91
2023-02-13T07:21:52.758Z,99889.84
2023-02-13T07:24:19.668Z,99889.56
2023-02-13T07:26:46.579Z,99887.66
2023-02-13T07:29:13.583Z,99891.69
2023-02-13T07:31:40.554Z,99893.19
2023-02-13T07:34:08.011Z,99889.56
2023-02-13T07:36:35.234Z,99885.91
2023-02-13T07:39:02.298Z,99890.06
2023-02-13T07:41:29.399Z,99890.19
2023-02-13T07:43:56.380Z,99883.25
2023-02-13T07:46:23.498Z,99884.47
2023-02-13T07:48:52.523Z,99872.16
2023-02-13T07:51:19.475Z,99871.34
2023-02-13T07:53:46.758Z,99866.91
2023-02-13T07:56:13.728Z,99869.44
2023-02-13T07:58:41.205Z,99872.34
2023-02-13T08:01:10.317Z,99877.75
2023-02-13T08:03:37.593Z,99860.66
2023-02-13T08:06:05.751Z,99868.06
2023-02-13T08:08:32.716Z,99875.16
2023-02-13T08:11:27.136Z,99874.38
2023-02-13T08:13:54.011Z,99869.44
2023-02-13T08:16:21.019Z,99875.56
2023-02-13T08:18:47.915Z,99869.66
2023-02-13T08:21:15.485Z,99877.41
2023-02-13T08:23:42.437Z,99877.34
2023-02-13T08:26:11.272Z,99872.06
2023-02-13T08:28:38.567Z,99869.16
2023-02-13T08:31:13.056Z,99874.16
2023-02-13T08:33:41.601Z,99869.53
2023-02-13T08:36:08.996Z,99872.25
2023-02-13T08:38:35.951Z,99867.47
2023-02-13T08:41:02.846Z,99871.69
2023-02-13T08:43:29.759Z,99868.63
2023-02-13T08:46:01.101Z,99882.38
2023-02-13T08:48:29.739Z,99879.59
2023-02-13T08:50:56.806Z,99875.34
2023-02-13T08:53:23.824Z,99870.84
2023-02-13T08:55:55.220Z,99873.75
2023-02-13T08:58:22.650Z,99877.72
2023-02-13T09:00:50.239Z,99861.09
2023-02-13T09:03:17.229Z,99853.31
2023-02-13T09:05:44.180Z,99855.38
2023-02-13T09:08:14.020Z,99857.88
2023-02-13T09:10:43.904Z,99858.69
2023-02-13T09:13:11.147Z,99858.31
2023-02-13T09:15:41.686Z,99855.47
2023-02-13T09:18:08.626Z,99860.41
2023-02-13T09:20:36.254Z,99854.69
2023-02-13T09:23:03.613Z,99845.44
2023-02-13T09:25:30.524Z,99854.75
2023-02-13T09:27:57.464Z,99838.59
2023-02-13T09:30:24.648Z,99837.94
2023-02-13T09:32:55.309Z,99829.59
2023-02-13T09:35:23.699Z,99824.53
2023-02-13T09:37:50.567Z,99821.97
2023-02-13T09:40:43.223Z,99820.88
2023-02-13T09:43:30.603Z,99808.59
2023-02-13T10:17:37.023Z,99761.59
2023-02-13T10:20:08.789Z,99761.00
2023-02-13T10:22:41.550Z,99756.78
2023-02-13T10:25:40.637Z,99755.53
2023-02-13T10:28:15.688Z,99755.47
2023-02-13T10:31:05.454Z,99755.38
2023-02-13T10:33:36.376Z,99747.34
2023-02-13T10:36:24.457Z,99744.78
2023-02-13T10:39:00.329Z,99749.50
2023-02-13T10:41:48.791Z,99742.22
2023-02-13T10:44:56.033Z,99735.81
2023-02-13T10:47:25.829Z,99741.53
2023-02-13T10:50:11.662Z,99724.63
2023-02-13T10:53:00.325Z,99730.94
2023-02-13T10:55:46.039Z,99731.09
2023-02-13T10:58:19.257Z,99723.59
2023-02-13T11:01:07.098Z,99727.09
2023-02-13T11:03:34.044Z,99730.09
2023-02-13T11:06:07.835Z,99722.25
2023-02-13T11:08:44.655Z,99723.50
2023-02-13T11:11:36.272Z,99721.25
2023-02-13T11:14:14.105Z,99718.19
2023-02-13T11:16:48.852Z,99719.75
2023-02-13T11:19:22.533Z,99715.97
2023-02-13T11:21:54.695Z,99712.19
2023-02-13T11:24:27.386Z,99703.22
2023-02-13T11:27:05.982Z,99705.66
2023-02-13T11:29:34.888Z,99697.81
2023-02-13T11:32:29.719Z,99697.88
2023-02-13T11:34:57.275Z,99695.00
2023-02-13T11:37:29.821Z,99692.31
2023-02-13T11:39:59.989Z,99689.56
2023-02-13T11:42:36.434Z,99670.44
2023-02-13T11:45:23.093Z,99679.78
2023-02-13T11:47:50.503Z,99671.34
2023-02-13T11:50:23.242Z,99673.84
2023-02-13T11:53:04.499Z,99667.00
2023-02-13T11:55:39.463Z,99660.53
2023-02-13T11:58:12.111Z,99663.84
2023-02-13T12:00:41.538Z,99657.28
2023-02-13T12:03:29.030Z,99652.66
2023-02-13T12:06:16.219Z,99653.44
2023-02-13T12:08:47.037Z,99648.81
2023-02-13T12:11:44.117Z,99648.63
2023-02-13T12:14:18.684Z,99641.94
2023-02-13T12:16:55.302Z,99639.03
2023-02-13T12:19:25.221Z,99636.53
2023-02-13T12:22:28.093Z,99634.31
2023-02-13T12:25:04.983Z,99633.28
2023-02-13T12:27:42.837Z,99630.09
2023-02-13T12:30:12.911Z,99614.03
2023-02-13T12:33:16.583Z,99624.88
2023-02-13T12:36:01.791Z,99622.63
2023-02-13T12:38:48.750Z,99622.69
2023-02-13T12:41:25.326Z,99620.31
2023-02-13T12:44:23.813Z,99617.84
2023-02-13T12:47:15.079Z,99611.28
2023-02-13T12:49:59.048Z,99615.59
2023-02-13T12:52:45.145Z,99627.81
2023-02-13T12:55:18.154Z,99618.22
2023-02-13T12:57:57.029Z,99608.41
2023-02-13T13:00:45.885Z,99612.09
2023-02-13T13:03:51.521Z,99612.34
2023-02-13T13:06:33.232Z,99609.03
2023-02-13T13:09:10.819Z,99609.44
2023-02-13T13:12:02.375Z,99602.44
2023-02-13T13:14:38.829Z,99609.88
2023-02-13T13:17:09.370Z,99599.81
2023-02-13T13:19:52.709Z,99601.59
2023-02-13T13:22:30.692Z,99596.88
2023-02-13T13:25:03.463Z,99590.25
2023-02-13T13:27:38.295Z,99589.78
2023-02-13T13:30:14.784Z,99589.72
2023-02-13T13:32:44.254Z,99583.34
2023-02-13T13:35:20.041Z,99581.75
2023-02-13T13:38:25.546Z,99576.75
2023-02-13T13:41:07.212Z,99578.22
2023-02-13T13:43:57.843Z,99574.06
2023-02-13T13:46:43.796Z,99564.78
2023-02-13T13:49:16.690Z,99562.25
2023-02-13T13:51:43.754Z,99557.25
2023-02-13T13:54:10.559Z,99555.56
2023-02-13T13:57:02.298Z,99552.22
2023-02-13T13:59:38.304Z,99555.25
2023-02-13T14:02:17.600Z,99559.09
2023-02-13T14:05:10.622Z,99554.00
2023-02-13T14:07:43.858Z,99548.16
2023-02-13T14:10:26.323Z,99540.66
2023-02-13T14:12:56.808Z,99536.94
2023-02-13T14:15:39.061Z,99534.50
2023-02-13T14:18:14.955Z,99535.25
2023-02-13T14:20:43.107Z,99536.16
2023-02-13T14:23:34.290Z,99530.78
2023-02-13T14:26:16.578Z,99528.38
2023-02-13T14:28:49.239Z,99536.72
2023-02-13T14:31:22.489Z,99532.81
2023-02-13T14:34:02.894Z,99527.31
2023-02-13T14:36:42.379Z,99529.97
2023-02-13T14:39:42.355Z,99521.06
2023-02-13T14:42:30.032Z,99522.63
2023-02-13T14:45:00.743Z,99518.94
2023-02-13T14:47:57.829Z,99516.56
2023-02-13T14:50:30.548Z,99518.69
2023-02-13T14:53:03.518Z,99509.81
2023-02-13T14:55:46.726Z,99509.09
2023-02-13T14:58:25.228Z,99512.63
2023-02-13T15:01:06.147Z,99511.03
2023-02-13T15:03:49.916Z,99511.78
2023-02-13T15:06:27.877Z,99503.59
2023-02-13T15:08:58.175Z,99500.56
2023-02-13T15:11:36.201Z,99511.84
2023-02-13T15:14:25.782Z,99510.22
2023-02-13T15:16:57.865Z,99515.94
2023-02-13T15:19:26.161Z,99511.66
2023-02-13T15:21:57.166Z,99514.13
2023-02-13T15:24:25.247Z,99505.56
2023-02-13T15:27:04.230Z,99506.25
2023-02-13T15:29:47.575Z,99512.34
2023-02-13T15:32:29.400Z,99512.75
2023-02-13T15:34:56.597Z,99517.94
2023-02-13T15:37:27.641Z,99516.19
2023-02-13T15:39:54.797Z,99517.28
2023-02-13T15:42:22.035Z,99513.16
2023-02-13T15:44:53.275Z,99515.81
2023-02-13T15:47:30.746Z,99519.94
2023-02-13T15:49:57.882Z,99523.91
2023-02-13T15:52:34.437Z,99516.44
2023-02-13T15:55:01.239Z,99512.41
2023-02-13T15:57:28.925Z,99525.50
2023-02-13T15:59:57.771Z,99524.09
2023-02-13T16:02:34.098Z,99528.72
2023-02-13T16:05:02.282Z,99534.88
2023-02-13T16:07:30.780Z,99530.53
2023-02-13T16:10:33.056Z,99527.34
2023-02-13T16:13:16.892Z,99529.81
2023-02-13T16:15:44.131Z,99532.41
2023-02-13T16:18:20.094Z,99530.41
2023-02-13T16:20:53.382Z,99529.69
2023-02-13T16:23:21.222Z,99525.94
2023-02-13T16:25:48.964Z,99526.56
2023-02-13T16:28:25.773Z,99524.78
2023-02-13T16:30:59.539Z,99528.84
2023-02-13T16:33:43.546Z,99520.00
2023-02-13T16:36:10.487Z,99526.00
2023-02-13T16:38:41.472Z,99526.47
2023-02-13T16:41:22.100Z,99527.72
2023-02-13T16:43:53.087Z,99525.72
2023-02-13T16:46:24.934Z,99526.78
2023-02-13T16:48:58.311Z,99525.78
2023-02-13T16:51:39.174Z,99518.41
2023-02-13T16:54:15.736Z,99520.44
2023-02-13T16:56:51.669Z,99525.63
2023-02-13T16:59:21.483Z,99520.19
2023-02-13T17:01:49.074Z,99523.78
2023-02-13T17:04:25.693Z,99515.03
2023-02-13T17:06:56.204Z,99518.06
2023-02-13T17:09:24.124Z,99514.97
2023-02-13T17:11:53.428Z,99522.25
2023-02-13T17:14:20.608Z,99517.97
2023-02-13T17:16:48.838Z,99511.78
2023-02-13T17:19:15.834Z,99511.66
2023-02-13T17:21:42.795Z,99506.03
2023-02-13T17:24:16.796Z,99511.03
2023-02-13T17:26:44.080Z,99500.50
2023-02-13T17:29:10.967Z,99499.84
2023-02-13T17:31:38.061Z,99501.56
2023-02-13T17:34:05.920Z,99496.47
2023-02-13T17:36:32.829Z,99492.97
2023-02-13T17:38:59.767Z,99490.75
2023-02-13T17:41:26.727Z,99487.13
2023-02-13T17:43:53.620Z,99485.13
2023-02-13T17:46:20.716Z,99477.56
2023-02-13T17:48:47.581Z,99481.13
2023-02-13T17:51:14.973Z,99478.28
2023-02-13T17:53:41.959Z,99468.72
2023-02-13T17:56:08.871Z,99467.94
2023-02-13T17:58:35.772Z,99463.53
2023-02-13T18:01:03.487Z,99470.38
2023-02-13T18:03:30.627Z,99466.91
2023-02-13T18:05:57.579Z,99472.03
2023-02-13T18:08:24.817Z,99467.63
2023-02-13T18:10:51.700Z,99468.84
2023-02-13T18:13:18.702Z,99473.44
2023-02-13T18:15:45.800Z,99469.28
2023-02-13T18:18:16.166Z,99467.75
2023-02-13T18:20:44.409Z,99466.38
2023-02-13T18:23:11.370Z,99467.28
2023-02-13T18:25:38.314Z,99460.59
2023-02-13T18:28:05.344Z,99461.44
2023-02-13T18:30:32.313Z,99470.94
2023-02-13T18:32:59.466Z,99463.34
2023-02-13T18:35:27.020Z,99453.69
2023-02-13T18:37:54.309Z,99461.66
2023-02-13T18:40:21.596Z,99457.94
2023-02-13T18:42:51.092Z,99455.31
2023-02-13T18:45:18.317Z,99451.75
2023-02-13T18:47:45.461Z,99448.81
2023-02-13T18:50:12.411Z,99438.84
2023-02-13T18:52:39.478Z,99447.84
2023-02-13T18:55:07.401Z,99445.19
2023-02-13T18:57:34.755Z,99450.94
2023-02-13T19:00:01.804Z,99445.84
2023-02-13T19:02:28.797Z,99444.38
2023-02-13T19:04:55.697Z,99435.16
2023-02-13T19:07:22.926Z,99440.88
2023-02-13T19:09:50.024Z,99441.75
2023-02-13T19:12:17.307Z,99438.06
2023-02-13T19:14:44.365Z,99434.00
2023-02-13T19:17:11.419Z,99432.69
2023-02-13T19:19:38.417Z,99439.09
2023-02-13T19:22:05.320Z,99424.47
2023-02-13T19:24:32.540Z,99420.56
2023-02-13T19:27:00.580Z,99429.22
2023-02-13T19:29:27.603Z,99430.06
2023-02-13T19:31:54.925Z,99424.88
2023-02-13T19:34:22.143Z,99425.59
2023-02-13T19:36:49.096Z,99425.84
2023-02-13T19:39:16.185Z,99422.69
2023-02-13T19:41:44.310Z,99422.41
2023-02-13T19:44:11.512Z,99421.84
2023-02-13T19:46:38.815Z,99412.38
2023-02-13T19:49:06.814Z,99409.56
2023-02-13T19:51:35.061Z,99414.72
2023-02-13T19:54:07.197Z,99408.88
2023-02-13T19:56:37.161Z,99406.38
2023-02-13T19:59:05.525Z,99411.75
2023-02-13T20:01:32.802Z,99402.00
2023-02-13T20:03:59.813Z,99395.06
2023-02-13T20:06:32.677Z,99395.31
2023-02-13T20:09:01.970Z,99403.75
2023-02-13T20:11:29.667Z,99392.09
2023-02-13T20:14:00.852Z,99390.75
2023-02-13T20:16:33.309Z,99388.81
2023-02-13T20:19:03.690Z,99389.72
2023-02-13T20:21:30.744Z,99388.66
2023-02-13T20:23:57.849Z,99385.13
2023-02-13T20:26:24.932Z,99387.38
2023-02-13T20:28:51.946Z,99388.72
2023-02-13T20:31:21.507Z,99378.22
2023-02-13T20:33:50.259Z,99378.94
2023-02-13T20:36:19.844Z,99378.16
2023-02-13T20:38:46.836Z,99370.66
2023-02-13T20:41:13.824Z,99365.50
2023-02-13T20:43:41.491Z,99351.22
2023-02-13T20:46:09.082Z,99360.16
2023-02-13T20:48:37.165Z,99355.19
2023-02-13T20:51:06.440Z,99343.38
2023-02-13T20:53:33.855Z,99338.66
2023-02-13T20:56:06.684Z,99337.69
2023-02-13T20:58:34.460Z,99353.13
2023-02-13T21:01:01.921Z,99340.63
2023-02-13T21:03:29.492Z,99335.50
2023-02-13T21:05:56.440Z,99333.03
2023-02-13T21:08:23.351Z,99332.41
2023-02-13T21:10:50.298Z,99333.19
2023-02-13T21:13:17.466Z,99333.75
2023-02-13T21:15:48.300Z,99339.78
2023-02-13T21:18:15.634Z,99339.00
2023-02-13T21:20:42.571Z,99328.38
2023-02-13T21:23:09.625Z,99329.94
2023-02-13T21:25:36.571Z,99316.75
2023-02-13T21:28:03.582Z,99317.53
2023-02-13T21:30:30.643Z,99321.78
2023-02-13T21:32:57.615Z,99313.97
2023-02-13T21:35:24.520Z,99320.94
2023-02-13T21:37:51.469Z,99320.09
2023-02-13T21:40:19.970Z,99324.44
2023-02-13T21:42:46.929Z,99323.03
2023-02-13T21:45:13.876Z,99329.22
2023-02-13T21:47:40.775Z,99324.00
2023-02-13T21:50:08.102Z,99322.19
2023-02-13T21:52:35.584Z,99333.03
2023-02-13T21:55:03.237Z,99315.75
2023-02-13T21:57:30.110Z,99319.88
2023-02-13T21:59:57.433Z,99335.03
2023-02-13T22:02:27.113Z,99321.56
2023-02-13T22:04:54.133Z,99326.13
2023-02-13T22:07:21.049Z,99331.47
2023-02-13T22:09:50.050Z,99327.47
2023-02-13T22:12:16.902Z,99321.63
2023-02-13T22:14:43.850Z,99314.84
2023-02-13T22:17:10.905Z,99314.59
2023-02-13T22:19:38.022Z,99316.00
2023-02-13T22:22:04.902Z,99317.31
2023-02-13T22:24:32.813Z,99322.44
2023-02-13T22:26:59.770Z,99324.03
2023-02-13T22:29:27.245Z,99311.56
2023-02-13T22:31:54.169Z,99312.78
2023-02-13T22:34:21.209Z,99300.19
2023-02-13T22:36:48.147Z,99297.31
2023-02-13T22:39:15.113Z,99299.03
2023-02-13T22:41:44.536Z,99297.84
2023-02-13T22:44:11.566Z,99297.78
2023-02-13T22:46:38.713Z,99296.63
2023-02-13T22:49:05.604Z,99289.00
2023-02-13T22:51:35.422Z,99299.75
2023-02-13T22:54:03.133Z,99296.75
2023-02-13T22:56:31.149Z,99295.22
2023-02-13T22:58:59.577Z,99293.66
2023-02-13T23:01:28.067Z,99291.84
2023-02-13T23:03:55.818Z,99291.22
2023-02-13T23:06:23.899Z,99282.06
2023-02-13T23:08:53.486Z,99284.16
2023-02-13T23:11:41.947Z,99280.00
2023-02-13T23:14:10.381Z,99285.34
2023-02-13T23:17:00.259Z,99290.19
2023-02-13T23:19:29.851Z,99298.91
2023-02-13T23:21:57.294Z,99294.06
2023-02-13T23:24:24.321Z,99302.97
2023-02-13T23:26:51.215Z,99311.44
2023-02-13T23:29:18.341Z,99315.44
2023-02-13T23:31:45.337Z,99301.66
2023-02-13T23:34:12.457Z,99309.72
2023-02-13T23:36:39.328Z,99294.94
2023-02-13T23:39:06.334Z,99297.81
2023-02-13T23:41:33.330Z,99301.41
2023-02-13T23:44:00.198Z,99300.56
2023-02-13T23:46:27.549Z,99301.34
2023-02-13T23:48:54.517Z,99302.88
2023-02-13T23:51:23.201Z,99296.09
2023-02-13T23:53:50.131Z,99296.66
2023-02-13T23:56:17.057Z,99306.81
2023-02-13T23:58:43.948Z,99302.38
